createdAt,value
2023-09-08T00:00:51.452Z,97209.72
2023-09-08T00:01:55.822Z,97210.22
2023-09-08T00:02:59.916Z,97209.97
2023-09-08T00:04:05.413Z,97209.16
2023-09-08T00:05:09.067Z,97207.25
2023-09-08T00:06:13.770Z,97210.78
2023-09-08T00:07:16.872Z,97212.34
2023-09-08T00:08:20.972Z,97212.34
2023-09-08T00:09:23.980Z,97212.34
2023-09-08T00:10:28.105Z,97209.66
2023-09-08T00:11:31.068Z,97212.34
2023-09-08T00:12:33.983Z,97217.19
2023-09-08T00:13:38.496Z,97213.41
2023-09-08T00:14:41.624Z,97209.59
2023-09-08T00:15:45.700Z,97216.63
2023-09-08T00:16:50.064Z,97215.00
2023-09-08T00:17:53.989Z,97214.22
2023-09-08T00:18:57.315Z,97212.59
2023-09-08T00:20:01.214Z,97216.41
2023-09-08T00:21:04.049Z,97208.56
2023-09-08T00:22:08.461Z,97209.38
2023-09-08T00:23:11.525Z,97208.06
2023-09-08T00:24:15.976Z,97214.56
2023-09-08T00:25:18.971Z,97217.25
2023-09-08T00:26:23.248Z,97228.06
2023-09-08T00:27:26.335Z,97218.34
2023-09-08T00:28:29.792Z,97222.16
2023-09-08T00:29:34.197Z,97218.94
2023-09-08T00:30:57.057Z,97211.94
2023-09-08T00:32:03.197Z,97220.53
2023-09-08T00:33:09.912Z,97207.03
2023-09-08T00:34:14.003Z,97212.44
2023-09-08T00:35:16.932Z,97207.84
2023-09-08T00:36:21.293Z,97211.34
2023-09-08T00:37:24.213Z,97207.53
2023-09-08T00:38:28.832Z,97211.59
2023-09-08T00:39:31.759Z,97200.97
2023-09-08T00:40:35.616Z,97209.31
2023-09-08T00:41:38.541Z,97209.84
2023-09-08T00:42:42.377Z,97197.13
2023-09-08T00:43:45.304Z,97198.47
2023-09-08T00:44:49.131Z,97207.41
2023-09-08T00:45:52.705Z,97206.59
2023-09-08T00:46:57.663Z,97216.06
2023-09-08T00:48:02.618Z,97206.00
2023-09-08T00:49:10.330Z,97209.75
2023-09-08T00:50:13.719Z,97210.56
2023-09-08T00:51:17.667Z,97209.47
2023-09-08T00:52:21.112Z,97208.09
2023-09-08T00:53:25.936Z,97211.28
2023-09-08T00:54:29.723Z,97205.59
2023-09-08T00:55:36.413Z,97202.59
2023-09-08T00:56:40.873Z,97201.81
2023-09-08T00:57:45.268Z,97199.88
2023-09-08T00:58:48.207Z,97196.69
2023-09-08T00:59:52.542Z,97197.50
2023-09-08T01:00:55.402Z,97208.31
2023-09-08T01:01:59.576Z,97191.28
2023-09-08T01:03:04.243Z,97195.88
2023-09-08T01:04:08.305Z,97207.22
2023-09-08T01:05:11.202Z,97199.88
2023-09-08T01:06:15.518Z,97199.09
2023-09-08T01:07:20.771Z,97198.28
2023-09-08T01:08:24.914Z,97195.88
2023-09-08T01:09:29.378Z,97192.88
2023-09-08T01:10:33.826Z,97189.38
2023-09-08T01:11:37.406Z,97193.69
2023-09-08T01:12:41.576Z,97187.97
2023-09-08T01:13:44.896Z,97186.09
2023-09-08T01:14:49.728Z,97184.19
2023-09-08T01:15:53.781Z,97192.31
2023-09-08T01:16:56.802Z,97189.28
2023-09-08T01:18:01.392Z,97189.28
2023-09-08T01:19:08.338Z,97185.00
2023-09-08T01:20:18.761Z,97189.28
2023-09-08T01:21:43.907Z,97189.28
2023-09-08T01:22:57.861Z,97179.59
2023-09-08T01:24:23.173Z,97179.88
2023-09-08T01:25:30.976Z,97178.56
2023-09-08T01:26:38.363Z,97177.47
2023-09-08T01:27:46.792Z,97176.34
2023-09-08T01:28:53.310Z,97172.06
2023-09-08T01:29:58.173Z,97175.84
2023-09-08T01:31:02.776Z,97173.16
2023-09-08T01:32:06.540Z,97169.94
2023-09-08T01:33:10.731Z,97171.84
2023-09-08T01:34:14.688Z,97168.59
2023-09-08T01:35:18.661Z,97173.19
2023-09-08T01:36:21.747Z,97175.91
2023-09-08T01:37:26.101Z,97175.41
2023-09-08T01:38:29.080Z,97171.38
2023-09-08T01:39:33.330Z,97162.53
2023-09-08T01:40:37.716Z,97163.91
2023-09-08T01:41:41.788Z,97172.31
2023-09-08T01:42:46.300Z,97176.13
2023-09-08T01:43:50.894Z,97168.50
2023-09-08T01:44:53.790Z,97169.31
2023-09-08T01:45:57.584Z,97163.09
2023-09-08T01:47:00.580Z,97166.34
2023-09-08T01:48:04.102Z,97162.53
2023-09-08T01:49:08.087Z,97154.94
2023-09-08T01:50:11.155Z,97153.31
2023-09-08T01:51:15.130Z,97157.13
2023-09-08T01:52:18.090Z,97150.09
2023-09-08T01:53:21.970Z,97142.50
2023-09-08T01:54:25.116Z,97155.75
2023-09-08T01:55:28.880Z,97150.34
2023-09-08T01:56:33.176Z,97147.91
2023-09-08T01:57:37.120Z,97149.53
2023-09-08T01:58:39.972Z,97146.31
2023-09-08T01:59:44.271Z,97147.91
2023-09-08T02:00:50.771Z,97147.91
2023-09-08T02:01:54.868Z,97150.63
2023-09-08T02:02:58.556Z,97149.81
2023-09-08T02:04:03.133Z,97154.94
2023-09-08T02:05:07.970Z,97151.16
2023-09-08T02:06:12.224Z,97144.63
2023-09-08T02:07:15.679Z,97147.31
2023-09-08T02:08:19.464Z,97149.44
2023-09-08T02:09:23.809Z,97151.38
2023-09-08T02:10:27.589Z,97146.75
2023-09-08T02:11:30.422Z,97144.34
2023-09-08T02:12:35.840Z,97141.63
2023-09-08T02:13:38.802Z,97142.72
2023-09-08T02:14:42.979Z,97158.94
2023-09-08T02:15:46.128Z,97151.16
2023-09-08T02:16:49.168Z,97146.31
2023-09-08T02:17:54.847Z,97152.28
2023-09-08T02:18:57.779Z,97149.56
2023-09-08T02:20:02.083Z,97143.41
2023-09-08T02:21:05.156Z,97150.69
2023-09-08T02:22:09.296Z,97145.28
2023-09-08T02:23:12.464Z,97150.69
2023-09-08T02:24:17.223Z,97139.06
2023-09-08T02:25:20.832Z,97145.28
2023-09-08T02:26:25.042Z,97139.88
2023-09-08T02:27:29.029Z,97149.06
2023-09-08T02:28:34.523Z,97147.47
2023-09-08T02:29:37.635Z,97149.66
2023-09-08T02:30:41.593Z,97144.25
2023-09-08T02:31:45.524Z,97145.34
2023-09-08T02:32:49.473Z,97140.25
2023-09-08T02:33:53.089Z,97144.84
2023-09-08T02:34:57.183Z,97147.03
2023-09-08T02:36:03.605Z,97137.91
2023-09-08T02:37:07.437Z,97139.56
2023-09-08T02:38:11.087Z,97133.66
2023-09-08T02:39:15.163Z,97142.34
2023-09-08T02:40:18.763Z,97132.63
2023-09-08T02:41:23.005Z,97137.47
2023-09-08T02:42:25.817Z,97140.16
2023-09-08T02:43:30.144Z,97145.06
2023-09-08T02:44:35.123Z,97143.44
2023-09-08T02:45:39.112Z,97133.44
2023-09-08T02:46:42.444Z,97145.56
2023-09-08T02:47:46.539Z,97142.63
2023-09-08T02:48:50.491Z,97142.34
2023-09-08T02:49:54.308Z,97146.38
2023-09-08T02:50:57.215Z,97147.16
2023-09-08T02:52:00.990Z,97150.38
2023-09-08T02:53:04.153Z,97146.59
2023-09-08T02:54:08.772Z,97141.19
2023-09-08T02:55:12.634Z,97137.38
2023-09-08T02:56:16.469Z,97138.97
2023-09-08T02:57:19.361Z,97144.38
2023-09-08T02:58:22.444Z,97137.59
2023-09-08T02:59:26.687Z,97140.28
2023-09-08T03:00:31.632Z,97143.00
2023-09-08T03:01:35.703Z,97141.91
2023-09-08T03:02:38.743Z,97141.91
2023-09-08T03:03:43.687Z,97146.00
2023-09-08T03:04:46.987Z,97141.69
2023-09-08T03:05:57.764Z,97141.19
2023-09-08T03:07:00.833Z,97139.56
2023-09-08T03:10:13.047Z,97139.56
2023-09-08T03:12:19.841Z,97137.94
2023-09-08T03:13:22.771Z,97139.06
2023-09-08T03:14:26.558Z,97147.75
2023-09-08T03:15:29.552Z,97145.06
2023-09-08T03:16:34.872Z,97142.34
2023-09-08T03:17:37.781Z,97142.03
2023-09-08T03:18:41.628Z,97146.88
2023-09-08T03:19:47.017Z,97138.75
2023-09-08T03:20:51.688Z,97139.56
2023-09-08T03:21:54.927Z,97141.19
2023-09-08T03:22:58.732Z,97138.97
2023-09-08T03:24:01.677Z,97142.19
2023-09-08T03:25:07.434Z,97134.88
2023-09-08T03:26:11.437Z,97146.50
2023-09-08T03:27:16.627Z,97140.28
2023-09-08T03:28:20.184Z,97141.91
2023-09-08T03:29:24.912Z,97149.75
2023-09-08T03:30:28.131Z,97139.44
2023-09-08T03:31:34.851Z,97137.53
2023-09-08T03:32:38.293Z,97144.25
2023-09-08T03:33:43.670Z,97143.97
2023-09-08T03:34:47.337Z,97145.28
2023-09-08T03:35:51.304Z,97145.56
2023-09-08T03:36:56.093Z,97148.28
2023-09-08T03:37:59.633Z,97141.78
2023-09-08T03:39:03.492Z,97144.47
2023-09-08T03:40:08.139Z,97146.38
2023-09-08T03:41:12.183Z,97146.09
2023-09-08T03:42:15.095Z,97152.28
2023-09-08T03:43:18.940Z,97140.38
2023-09-08T03:44:21.846Z,97144.69
2023-09-08T03:45:25.706Z,97140.38
2023-09-08T03:46:28.649Z,97137.69
2023-09-08T03:47:33.875Z,97139.88
2023-09-08T03:48:36.911Z,97132.84
2023-09-08T03:49:40.950Z,97134.47
2023-09-08T03:50:46.394Z,97132.56
2023-09-08T03:51:51.001Z,97133.34
2023-09-08T03:52:54.417Z,97136.06
2023-09-08T03:53:58.672Z,97132.25
2023-09-08T03:55:01.727Z,97127.66
2023-09-08T03:56:05.920Z,97126.84
2023-09-08T03:57:09.000Z,97126.84
2023-09-08T03:58:13.220Z,97140.69
2023-09-08T03:59:16.084Z,97129.06
2023-09-08T04:00:22.667Z,97134.47
2023-09-08T04:01:26.581Z,97132.84
2023-09-08T04:02:29.847Z,97136.38
2023-09-08T04:03:35.486Z,97134.47
2023-09-08T04:04:38.584Z,97129.06
2023-09-08T04:05:42.408Z,97130.16
2023-09-08T04:06:45.326Z,97133.44
2023-09-08T04:07:49.181Z,97138.34
2023-09-08T04:08:52.428Z,97137.81
2023-09-08T04:09:55.290Z,97134.59
2023-09-08T04:10:59.045Z,97139.22
2023-09-08T04:12:03.258Z,97141.09
2023-09-08T04:13:07.484Z,97144.63
2023-09-08T04:14:11.729Z,97143.81
2023-09-08T04:15:16.018Z,97140.00
2023-09-08T04:16:21.452Z,97150.28
2023-09-08T04:17:25.590Z,97158.41
2023-09-08T04:18:28.607Z,97173.09
2023-09-08T04:19:32.954Z,97155.88
2023-09-08T04:20:36.832Z,97157.03
2023-09-08T04:21:40.218Z,97162.53
2023-09-08T04:22:44.057Z,97161.19
2023-09-08T04:23:47.909Z,97160.38
2023-09-08T04:24:52.524Z,97160.38
2023-09-08T04:25:55.353Z,97150.38
2023-09-08T04:26:59.185Z,97156.59
2023-09-08T04:28:02.110Z,97158.19
2023-09-08T04:29:06.112Z,97159.00
2023-09-08T04:30:10.262Z,97158.19
2023-09-08T04:31:14.278Z,97157.16
2023-09-08T04:32:17.130Z,97162.34
2023-09-08T04:33:21.118Z,97150.72
2023-09-08T04:34:23.991Z,97145.06
2023-09-08T04:36:02.352Z,97155.09
2023-09-08T04:42:48.283Z,97152.44
2023-09-08T04:44:27.474Z,97151.97
2023-09-08T04:46:14.826Z,97153.59
2023-09-08T04:47:17.924Z,97161.13
2023-09-08T04:48:22.006Z,97157.84
2023-09-08T04:49:25.077Z,97155.88
2023-09-08T04:50:29.114Z,97153.41
2023-09-08T04:51:33.512Z,97151.75
2023-09-08T04:52:37.518Z,97151.19
2023-09-08T04:53:40.593Z,97153.03
2023-09-08T04:54:43.791Z,97154.34
2023-09-08T04:55:49.042Z,97146.72
2023-09-08T04:56:55.464Z,97154.56
2023-09-08T04:58:03.769Z,97161.28
2023-09-08T04:59:07.148Z,97156.38
2023-09-08T05:00:13.121Z,97155.06
2023-09-08T05:01:16.551Z,97151.22
2023-09-08T05:02:21.035Z,97145.81
2023-09-08T05:03:24.066Z,97147.16
2023-09-08T05:04:28.403Z,97152.56
2023-09-08T05:05:31.377Z,97146.06
2023-09-08T05:06:36.700Z,97141.19
2023-09-08T05:07:39.713Z,97138.16
2023-09-08T05:08:45.520Z,97149.78
2023-09-08T05:09:48.536Z,97153.31
2023-09-08T05:10:52.421Z,97156.81
2023-09-08T05:11:55.529Z,97159.22
2023-09-08T05:12:59.691Z,97152.44
2023-09-08T05:14:03.302Z,97156.75
2023-09-08T05:15:12.049Z,97155.34
2023-09-08T05:16:15.485Z,97150.75
2023-09-08T05:17:19.590Z,97158.84
2023-09-08T05:18:24.587Z,97161.28
2023-09-08T05:19:29.179Z,97162.09
2023-09-08T05:20:32.450Z,97157.50
2023-09-08T05:21:38.368Z,97156.09
2023-09-08T05:22:42.754Z,97156.91
2023-09-08T05:23:45.777Z,97166.34
2023-09-08T05:24:49.889Z,97158.22
2023-09-08T05:25:53.557Z,97163.31
2023-09-08T05:26:57.592Z,97156.78
2023-09-08T05:28:01.656Z,97163.19
2023-09-08T05:29:05.550Z,97155.00
2023-09-08T05:30:09.587Z,97161.66
2023-09-08T05:31:13.510Z,97165.31
2023-09-08T05:32:16.614Z,97161.91
2023-09-08T05:33:20.629Z,97166.25
2023-09-08T05:34:23.598Z,97157.91
2023-09-08T05:35:27.436Z,97170.38
2023-09-08T05:36:30.803Z,97176.66
2023-09-08T05:37:36.201Z,97176.91
2023-09-08T05:38:39.185Z,97176.09
2023-09-08T05:39:43.439Z,97173.91
2023-09-08T05:40:46.363Z,97172.31
2023-09-08T05:41:50.253Z,97177.72
2023-09-08T05:42:53.250Z,97173.72
2023-09-08T05:43:57.209Z,97178.66
2023-09-08T05:45:00.268Z,97174.59
2023-09-08T05:46:05.295Z,97168.44
2023-09-08T05:47:09.082Z,97170.63
2023-09-08T05:48:13.700Z,97176.63
2023-09-08T05:49:16.637Z,97179.63
2023-09-08T05:50:19.516Z,97176.66
2023-09-08T05:51:23.777Z,97176.94
2023-09-08T05:52:29.159Z,97178.28
2023-09-08T05:53:34.545Z,97178.03
2023-09-08T05:54:37.380Z,97173.44
2023-09-08T05:55:41.177Z,97178.97
2023-09-08T05:56:43.993Z,97181.72
2023-09-08T05:57:47.843Z,97182.56
2023-09-08T05:58:50.709Z,97180.19
2023-09-08T05:59:54.685Z,97182.97
2023-09-08T06:00:57.672Z,97186.34
2023-09-08T06:02:01.657Z,97177.75
2023-09-08T06:03:05.352Z,97175.03
2023-09-08T06:04:08.512Z,97175.41
2023-09-08T06:05:12.571Z,97174.16
2023-09-08T06:06:15.678Z,97172.88
2023-09-08T06:07:19.743Z,97182.50
2023-09-08T06:08:23.372Z,97180.13
2023-09-08T06:09:28.679Z,97175.00
2023-09-08T06:10:32.005Z,97182.41
2023-09-08T06:11:35.877Z,97184.31
2023-09-08T06:12:38.754Z,97182.41
2023-09-08T06:13:43.492Z,97192.06
2023-09-08T06:14:46.291Z,97185.34
2023-09-08T06:15:50.087Z,97179.88
2023-09-08T06:16:53.042Z,97182.13
2023-09-08T06:17:57.006Z,97182.91
2023-09-08T06:19:00.756Z,97188.69
2023-09-08T06:20:04.781Z,97183.56
2023-09-08T06:21:08.233Z,97183.88
2023-09-08T06:22:12.307Z,97178.78
2023-09-08T06:23:15.524Z,97180.19
2023-09-08T06:24:19.352Z,97177.28
2023-09-08T06:25:23.719Z,97185.47
2023-09-08T06:26:27.585Z,97180.31
2023-09-08T06:27:31.301Z,97176.59
2023-09-08T06:28:36.846Z,97179.16
2023-09-08T06:29:41.146Z,97173.97
2023-09-08T06:30:45.201Z,97172.19
2023-09-08T06:31:48.036Z,97174.44
2023-09-08T06:32:52.062Z,97184.06
2023-09-08T06:33:55.147Z,97182.75
2023-09-08T06:34:59.063Z,97181.31
2023-09-08T06:36:01.968Z,97180.00
2023-09-08T06:37:06.033Z,97181.41
2023-09-08T06:38:08.896Z,97188.63
2023-09-08T06:39:14.023Z,97174.16
2023-09-08T06:40:17.761Z,97178.81
2023-09-08T06:41:24.180Z,97186.19
2023-09-08T06:42:27.062Z,97177.22
2023-09-08T06:43:31.229Z,97185.41
2023-09-08T06:44:34.267Z,97179.47
2023-09-08T06:45:41.142Z,97177.56
2023-09-08T06:46:44.309Z,97182.34
2023-09-08T06:47:48.399Z,97169.66
2023-09-08T06:48:51.567Z,97174.91
2023-09-08T06:49:55.868Z,97168.31
2023-09-08T06:51:00.328Z,97172.63
2023-09-08T06:52:05.278Z,97172.31
2023-09-08T06:53:08.914Z,97172.78
2023-09-08T06:54:13.058Z,97173.72
2023-09-08T06:55:17.524Z,97171.94
2023-09-08T06:56:22.731Z,97169.34
2023-09-08T06:57:25.679Z,97163.41
2023-09-08T06:58:32.054Z,97172.75
2023-09-08T06:59:39.249Z,97174.53
2023-09-08T07:00:43.220Z,97163.94
2023-09-08T07:01:46.589Z,97168.25
2023-09-08T07:02:51.887Z,97162.50
2023-09-08T07:03:55.244Z,97171.94
2023-09-08T07:05:00.239Z,97166.13
2023-09-08T07:06:04.155Z,97167.28
2023-09-08T07:07:09.123Z,97177.84
2023-09-08T07:08:12.210Z,97172.75
2023-09-08T07:09:16.631Z,97168.72
2023-09-08T07:10:19.876Z,97165.53
2023-09-08T07:11:25.107Z,97178.88
2023-09-08T07:12:28.368Z,97172.25
2023-09-08T07:13:34.978Z,97175.78
2023-09-08T07:14:40.023Z,97172.59
2023-09-08T07:15:47.880Z,97177.25
2023-09-08T07:16:51.879Z,97167.94
2023-09-08T07:17:56.106Z,97179.66
2023-09-08T07:19:02.074Z,97175.94
2023-09-08T07:20:07.344Z,97174.16
2023-09-08T07:21:10.950Z,97177.34
2023-09-08T07:22:15.136Z,97171.41
2023-09-08T07:23:18.634Z,97175.28
2023-09-08T07:24:22.671Z,97183.47
2023-09-08T07:25:25.585Z,97174.59
2023-09-08T07:26:31.032Z,97179.44
2023-09-08T07:27:33.997Z,97177.19
2023-09-08T07:28:38.170Z,97181.50
2023-09-08T07:29:41.418Z,97181.03
2023-09-08T07:30:45.747Z,97169.94
2023-09-08T07:31:49.410Z,97179.94
2023-09-08T07:32:54.382Z,97178.22
2023-09-08T07:33:57.567Z,97175.78
2023-09-08T07:35:01.750Z,97179.78
2023-09-08T07:36:06.142Z,97183.81
2023-09-08T07:37:10.635Z,97185.38
2023-09-08T07:38:13.662Z,97174.94
2023-09-08T07:39:18.284Z,97176.88
2023-09-08T07:40:21.373Z,97180.41
2023-09-08T07:41:25.139Z,97181.22
2023-09-08T07:42:30.352Z,97180.88
2023-09-08T07:43:34.418Z,97184.91
2023-09-08T07:44:37.347Z,97181.50
2023-09-08T07:45:41.624Z,97178.00
2023-09-08T07:46:47.162Z,97181.03
2023-09-08T07:48:07.225Z,97188.78
2023-09-08T07:49:14.176Z,97186.69
2023-09-08T07:50:20.378Z,97187.47
2023-09-08T07:51:24.452Z,97184.72
2023-09-08T07:52:32.099Z,97183.94
2023-09-08T07:53:38.128Z,97187.16
2023-09-08T07:54:43.409Z,97195.16
2023-09-08T07:55:53.374Z,97180.25
2023-09-08T07:56:57.418Z,97184.91
2023-09-08T07:58:07.569Z,97182.16
2023-09-08T07:59:10.607Z,97177.50
2023-09-08T08:00:16.406Z,97182.66
2023-09-08T08:01:19.554Z,97174.59
2023-09-08T08:02:23.662Z,97178.91
2023-09-08T08:03:26.717Z,97180.19
2023-09-08T08:04:30.616Z,97173.94
2023-09-08T08:05:33.579Z,97177.47
2023-09-08T08:06:37.531Z,97177.47
2023-09-08T08:07:41.544Z,97166.53
2023-09-08T08:08:45.448Z,97178.91
2023-09-08T08:09:48.592Z,97172.53
2023-09-08T08:10:52.461Z,97171.59
2023-09-08T08:11:55.690Z,97171.41
2023-09-08T08:12:59.840Z,97182.66
2023-09-08T08:14:05.143Z,97185.38
2023-09-08T08:15:11.393Z,97175.41
2023-09-08T08:16:14.961Z,97187.16
2023-09-08T08:17:20.875Z,97182.00
2023-09-08T08:18:24.071Z,97183.16
2023-09-08T08:19:28.838Z,97186.19
2023-09-08T08:20:36.078Z,97169.81
2023-09-08T08:21:43.293Z,97169.81
2023-09-08T08:22:46.865Z,97181.72
2023-09-08T08:23:50.947Z,97179.25
2023-09-08T08:24:53.946Z,97183.03
2023-09-08T08:25:57.880Z,97178.38
2023-09-08T08:27:02.883Z,97181.59
2023-09-08T08:28:07.231Z,97183.31
2023-09-08T08:29:12.059Z,97182.31
2023-09-08T08:30:15.985Z,97179.88
2023-09-08T08:31:18.855Z,97173.50
2023-09-08T08:32:23.232Z,97183.78
2023-09-08T08:33:27.239Z,97181.72
2023-09-08T08:34:31.869Z,97182.38
2023-09-08T08:35:35.684Z,97191.72
2023-09-08T08:36:40.230Z,97182.25
2023-09-08T08:37:44.181Z,97177.13
2023-09-08T08:38:48.151Z,97181.44
2023-09-08T08:39:51.198Z,97175.31
2023-09-08T08:40:55.645Z,97188.78
2023-09-08T08:41:59.212Z,97185.25
2023-09-08T08:43:04.980Z,97182.38
2023-09-08T08:44:09.016Z,97187.72
2023-09-08T08:45:15.361Z,97184.53
2023-09-08T08:46:19.854Z,97185.19
2023-09-08T08:47:23.989Z,97188.25
2023-09-08T08:48:28.789Z,97191.47
2023-09-08T08:49:34.228Z,97184.53
2023-09-08T08:50:38.948Z,97174.53
2023-09-08T08:51:46.454Z,97181.59
2023-09-08T08:52:49.464Z,97182.38
2023-09-08T08:53:54.394Z,97179.66
2023-09-08T08:54:58.393Z,97167.59
2023-09-08T08:56:03.372Z,97173.31
2023-09-08T08:57:07.356Z,97175.03
2023-09-08T08:58:12.057Z,97182.91
2023-09-08T08:59:16.059Z,97172.13
2023-09-08T09:00:22.362Z,97176.94
2023-09-08T09:01:27.328Z,97188.00
2023-09-08T09:02:32.041Z,97183.34
2023-09-08T09:03:38.964Z,97188.00
2023-09-08T09:04:43.258Z,97187.22
2023-09-08T09:05:48.744Z,97181.38
2023-09-08T09:06:53.265Z,97175.59
2023-09-08T09:07:59.220Z,97179.84
2023-09-08T09:09:04.625Z,97183.97
2023-09-08T09:10:08.883Z,97182.97
2023-09-08T09:11:13.900Z,97178.56
2023-09-08T09:12:16.940Z,97182.00
2023-09-08T09:13:21.335Z,97175.63
2023-09-08T09:14:25.307Z,97178.19
2023-09-08T09:15:33.719Z,97175.44
2023-09-08T09:16:41.574Z,97184.78
2023-09-08T09:17:46.153Z,97187.53
2023-09-08T09:18:56.636Z,97178.97
2023-09-08T09:20:15.790Z,97181.84
2023-09-08T09:21:18.658Z,97180.81
2023-09-08T09:22:23.237Z,97185.41
2023-09-08T09:23:30.467Z,97173.53
2023-09-08T09:24:38.408Z,97186.22
2023-09-08T09:25:42.012Z,97178.44
2023-09-08T09:26:46.089Z,97171.47
2023-09-08T09:27:52.361Z,97172.97
2023-09-08T09:28:56.377Z,97179.38
2023-09-08T09:29:59.882Z,97174.56
2023-09-08T09:31:05.259Z,97172.03
2023-09-08T09:32:09.262Z,97176.13
2023-09-08T09:33:12.424Z,97177.94
2023-09-08T09:34:16.432Z,97174.41
2023-09-08T09:35:19.901Z,97171.22
2023-09-08T09:36:24.605Z,97178.19
2023-09-08T09:37:27.823Z,97177.22
2023-09-08T09:38:32.000Z,97174.81
2023-09-08T09:39:35.194Z,97171.31
2023-09-08T09:40:40.197Z,97166.97
2023-09-08T09:41:45.396Z,97169.34
2023-09-08T09:42:51.804Z,97165.75
2023-09-08T09:43:55.726Z,97169.31
2023-09-08T09:44:58.921Z,97176.75
2023-09-08T09:46:04.535Z,97176.63
2023-09-08T09:47:08.239Z,97174.13
2023-09-08T09:48:13.406Z,97174.34
2023-09-08T09:49:18.903Z,97177.53
2023-09-08T09:50:31.359Z,97178.22
2023-09-08T09:51:41.046Z,97171.16
2023-09-08T09:52:49.785Z,97173.31
2023-09-08T09:53:53.335Z,97170.03
2023-09-08T09:54:58.102Z,97165.22
2023-09-08T09:56:01.618Z,97167.97
2023-09-08T09:57:06.134Z,97164.53
2023-09-08T09:58:11.906Z,97172.53
2023-09-08T09:59:16.648Z,97166.34
2023-09-08T10:00:20.735Z,97171.16
2023-09-08T10:01:27.870Z,97176.50
2023-09-08T10:02:31.945Z,97176.63
2023-09-08T10:03:36.212Z,97171.59
2023-09-08T10:04:41.586Z,97168.50
2023-09-08T10:05:48.137Z,97161.53
2023-09-08T10:06:52.853Z,97171.75
2023-09-08T10:07:56.764Z,97162.84
2023-09-08T10:09:00.543Z,97166.13
2023-09-08T10:10:06.715Z,97173.41
2023-09-08T10:11:10.286Z,97167.00
2023-09-08T10:12:18.202Z,97160.75
2023-09-08T10:13:28.314Z,97171.69
2023-09-08T10:14:33.813Z,97167.81
2023-09-08T10:15:39.238Z,97170.22
2023-09-08T10:16:50.624Z,97167.50
2023-09-08T10:17:56.509Z,97175.22
2023-09-08T10:19:02.747Z,97169.16
2023-09-08T10:20:12.302Z,97165.06
2023-09-08T10:21:18.792Z,97175.84
2023-09-08T10:22:27.287Z,97166.03
2023-09-08T10:23:37.312Z,97161.72
2023-09-08T10:24:44.201Z,97167.31
2023-09-08T10:25:55.696Z,97157.56
2023-09-08T10:27:10.224Z,97154.03
2023-09-08T10:28:16.074Z,97157.38
2023-09-08T10:29:20.467Z,97161.13
2023-09-08T10:30:25.232Z,97164.03
2023-09-08T10:31:29.917Z,97161.75
2023-09-08T10:32:36.487Z,97155.34
2023-09-08T10:33:40.556Z,97159.19
2023-09-08T10:34:46.875Z,97149.06
2023-09-08T10:35:50.035Z,97149.06
2023-09-08T10:36:54.214Z,97151.69
2023-09-08T10:38:23.334Z,97157.44
2023-09-08T10:39:33.429Z,97155.25
2023-09-08T10:40:36.652Z,97152.88
2023-09-08T10:41:42.219Z,97151.41
2023-09-08T10:42:45.601Z,97154.59
2023-09-08T10:43:57.441Z,97157.31
2023-09-08T10:45:05.742Z,97156.19
2023-09-08T10:46:11.295Z,97146.06
2023-09-08T10:47:14.400Z,97146.88
2023-09-08T10:48:22.021Z,97146.38
2023-09-08T10:49:25.075Z,97146.75
2023-09-08T10:50:32.519Z,97140.59
2023-09-08T10:51:35.971Z,97139.91
2023-09-08T10:52:39.893Z,97141.66
2023-09-08T10:53:42.964Z,97141.66
2023-09-08T10:54:48.876Z,97140.47
2023-09-08T10:57:02.209Z,97140.47
2023-09-08T10:58:06.816Z,97140.03
2023-09-08T10:59:12.781Z,97140.72
2023-09-08T11:00:21.321Z,97137.84
2023-09-08T11:01:28.667Z,97141.41
2023-09-08T11:02:34.696Z,97145.75
2023-09-08T11:03:50.890Z,97150.72
2023-09-08T11:04:55.205Z,97145.25
2023-09-08T11:06:00.271Z,97147.66
2023-09-08T11:07:03.790Z,97148.78
2023-09-08T11:08:08.208Z,97147.53
2023-09-08T11:09:11.411Z,97145.13
2023-09-08T11:10:15.552Z,97146.63
2023-09-08T11:11:18.941Z,97150.97
2023-09-08T11:12:24.684Z,97143.19
2023-09-08T11:13:29.232Z,97151.84
2023-09-08T11:14:33.115Z,97156.19
2023-09-08T11:15:36.209Z,97160.53
2023-09-08T11:16:40.086Z,97146.88
2023-09-08T11:17:43.811Z,97147.31
2023-09-08T11:18:49.214Z,97139.22
2023-09-08T11:19:53.652Z,97130.69
2023-09-08T11:20:58.741Z,97137.75
2023-09-08T11:22:01.993Z,97138.44
2023-09-08T11:23:07.287Z,97143.78
2023-09-08T11:24:11.721Z,97141.41
2023-09-08T11:25:16.234Z,97129.78
2023-09-08T11:26:25.852Z,97130.56
2023-09-08T11:27:31.499Z,97131.72
2023-09-08T11:28:35.353Z,97132.84
2023-09-08T11:29:41.600Z,97135.91
2023-09-08T11:30:45.655Z,97132.72
2023-09-08T11:31:53.560Z,97140.47
2023-09-08T11:33:00.044Z,97152.09
2023-09-08T11:34:06.948Z,97142.63
2023-09-08T11:35:13.796Z,97135.22
2023-09-08T11:36:17.957Z,97140.34
2023-09-08T11:37:22.941Z,97128.28
2023-09-08T11:38:27.495Z,97128.84
2023-09-08T11:39:31.409Z,97123.50
2023-09-08T11:40:35.938Z,97118.84
2023-09-08T11:41:40.028Z,97122.69
2023-09-08T11:42:46.049Z,97121.91
2023-09-08T11:43:50.436Z,97116.78
2023-09-08T11:44:54.892Z,97126.13
2023-09-08T11:46:00.632Z,97120.19
2023-09-08T11:47:04.839Z,97122.56
2023-09-08T11:48:09.241Z,97116.78
2023-09-08T11:49:14.070Z,97116.78
2023-09-08T11:50:20.777Z,97110.19
2023-09-08T11:51:25.152Z,97127.84
2023-09-08T11:52:29.110Z,97123.50
2023-09-08T11:53:34.782Z,97125.44
2023-09-08T11:54:51.868Z,97120.44
2023-09-08T11:55:59.102Z,97128.28
2023-09-08T11:57:05.004Z,97128.41
2023-09-08T11:58:08.304Z,97118.28
2023-09-08T11:59:12.463Z,97123.75
2023-09-08T12:00:19.141Z,97131.16
2023-09-08T12:01:23.420Z,97119.88
2023-09-08T12:02:27.004Z,97121.59
2023-09-08T12:03:31.496Z,97117.03
2023-09-08T12:04:38.098Z,97114.00
2023-09-08T12:05:43.794Z,97116.38
2023-09-08T12:06:47.959Z,97114.78
2023-09-08T12:07:53.186Z,97115.91
2023-09-08T12:08:57.600Z,97115.44
2023-09-08T12:10:10.172Z,97120.78
2023-09-08T12:11:14.792Z,97114.53
2023-09-08T12:12:19.467Z,97110.63
2023-09-08T12:13:25.414Z,97113.03
2023-09-08T12:14:31.673Z,97112.69
2023-09-08T12:15:36.294Z,97114.63
2023-09-08T12:16:41.187Z,97106.78
2023-09-08T12:17:51.801Z,97098.78
2023-09-08T12:18:56.359Z,97096.41
2023-09-08T12:20:01.281Z,97098.31
2023-09-08T12:21:07.979Z,97101.41
2023-09-08T12:22:12.989Z,97100.13
2023-09-08T12:23:19.704Z,97101.63
2023-09-08T12:24:50.746Z,97103.09
2023-09-08T12:25:55.135Z,97103.09
2023-09-08T12:26:58.133Z,97090.69
2023-09-08T12:28:02.825Z,97093.53
2023-09-08T12:29:13.418Z,97086.94
2023-09-08T12:30:21.576Z,97088.50
2023-09-08T12:31:25.114Z,97083.84
2023-09-08T12:32:32.591Z,97087.38
2023-09-08T12:33:36.397Z,97086.25
2023-09-08T12:34:40.474Z,97092.53
2023-09-08T12:35:46.786Z,97080.78
2023-09-08T12:36:51.171Z,97092.53
2023-09-08T12:38:15.952Z,97087.38
2023-09-08T12:39:36.065Z,97081.47
2023-09-08T12:40:40.967Z,97089.66
2023-09-08T12:41:44.823Z,97088.50
2023-09-08T12:42:49.720Z,97086.94
2023-09-08T12:44:03.075Z,97085.34
2023-09-08T12:45:07.654Z,97082.28
2023-09-08T12:46:12.288Z,97086.94
2023-09-08T12:47:15.289Z,97077.56
2023-09-08T12:48:19.340Z,97084.66
2023-09-08T12:49:22.504Z,97084.31
2023-09-08T12:50:26.836Z,97080.09
2023-09-08T12:51:31.216Z,97083.28
2023-09-08T12:52:35.159Z,97082.59
2023-09-08T12:53:38.213Z,97083.91